Time;durP1;ratioP1;P1;durP2;ratioP2;P2;SDS_P1;SDS_P2;PMS_P1;PMS_P2;Temp;Humidity;BMP_temperature;BMP_pressure;BME280_temperature;BME280_humidity;BME280_pressure;Samples;Min_cycle;Max_cycle;Signal;HPM_P1;HPM_P2
2023/04/30 00:00:34;;;;;;;;;;;;;;;7.23;89.95;102388.47;4984785;28;19922;-43
2023/04/30 00:02:59;;;;;;;;;;;;;;;7.18;90.78;102379.59;4985026;28;19922;-41
2023/04/30 00:05:25;;;;;;;;;;;;;;;7.15;90.20;102376.84;5009859;28;19951;-42
2023/04/30 00:07:50;;;;;;;;;;;;;;;7.09;90.98;102375.53;4988449;28;20010;-55
2023/04/30 00:10:15;;;;;;;;;;;;;;;7.06;92.46;102365.13;4985673;28;19925;-55
2023/04/30 00:12:40;;;;;;;;;;;;;;;7.06;91.09;102372.81;4992562;28;20126;-54
2023/04/30 00:15:06;;;;;;;;;;;;;;;7.04;91.62;102365.03;4982364;28;19961;-53
2023/04/30 00:17:31;;;;;;;;;;;;;;;7.04;92.93;102369.22;5003292;28;20376;-55
2023/04/30 00:19:56;;;;;;;;;;;;;;;7.02;91.78;102363.16;4985841;28;20386;-56
2023/04/30 00:22:22;;;;;;;;;;;;;;;7.02;90.67;102358.91;4986304;28;19921;-57
2023/04/30 00:24:47;;;;;;;;;;;;;;;7.01;91.17;102369.94;4986438;28;20394;-55
2023/04/30 00:27:12;;;;;;;;;;;;;;;6.98;91.70;102367.19;4993695;28;20219;-55
2023/04/30 00:29:38;;;;;;;;;;;;;;;6.97;88.87;102373.06;4994070;28;20041;-42
2023/04/30 00:32:03;;;;;;;;;;;;;;;6.97;91.32;102368.81;4983727;28;19921;-41
2023/04/30 00:34:28;;;;;;;;;;;;;;;6.97;92.56;102373.94;4984573;28;19930;-54
2023/04/30 00:36:53;;;;;;;;;;;;;;;6.97;92.97;102380.72;4980766;28;20082;-58
2023/04/30 00:39:19;;;;;;;;;;;;;;;6.97;93.98;102386.72;4981457;28;19925;-54
2023/04/30 00:41:44;;;;;;;;;;;;;;;6.97;92.15;102380.72;4984056;28;19987;-55
2023/04/30 00:44:10;;;;;;;;;;;;;;;6.96;94.19;102386.63;4989991;28;19922;-55
2023/04/30 00:46:35;;;;;;;;;;;;;;;6.95;94.18;102378.09;4986181;28;20380;-57
2023/04/30 00:49:03;;;;;;;;;;;;;;;6.95;93.72;102370.41;4982640;28;19922;-55
2023/04/30 00:51:28;;;;;;;;;;;;;;;6.95;92.66;102378.09;4985905;28;20052;-54
2023/04/30 00:53:54;;;;;;;;;;;;;;;6.96;93.44;102371.28;4986501;28;20382;-55
2023/04/30 00:56:19;;;;;;;;;;;;;;;6.91;93.64;102376.09;4985323;28;19918;-56
2023/04/30 00:58:45;;;;;;;;;;;;;;;6.90;95.02;102382.00;4985368;28;20386;-55
2023/04/30 01:01:10;;;;;;;;;;;;;;;6.88;95.36;102370.78;4991780;28;19924;-55
2023/04/30 01:03:36;;;;;;;;;;;;;;;6.85;95.52;102375.69;4992168;28;19986;-41
2023/04/30 01:06:02;;;;;;;;;;;;;;;6.83;95.58;102368.69;4999686;28;19926;-42
2023/04/30 01:08:28;;;;;;;;;;;;;;;6.80;95.38;102369.41;4994432;28;20467;-43
2023/04/30 01:11:00;;;;;;;;;;;;;;;6.75;95.42;102363.09;4979131;28;19930;-43
2023/04/30 01:13:25;;;;;;;;;;;;;;;6.75;95.12;102365.66;4977903;28;19918;-42
2023/04/30 01:16:03;;;;;;;;;;;;;;;6.72;95.65;102361.19;4987852;28;19967;-41
2023/04/30 01:18:32;;;;;;;;;;;;;;;6.71;96.60;102363.66;4990511;28;19918;-42
2023/04/30 01:21:03;;;;;;;;;;;;;;;6.69;97.45;102365.22;4998016;28;19921;-41
2023/04/30 01:23:34;;;;;;;;;;;;;;;6.66;97.08;102360.78;4981828;28;20028;-42
2023/04/30 01:26:18;;;;;;;;;;;;;;;6.64;96.92;102367.47;4982130;28;19918;-42
2023/04/30 01:28:45;;;;;;;;;;;;;;;6.60;97.01;102362.03;4997702;28;19922;-43
2023/04/30 01:31:11;;;;;;;;;;;;;;;6.58;96.94;102372.16;4983055;28;19920;-42
2023/04/30 01:33:37;;;;;;;;;;;;;;;6.58;98.55;102376.38;4980653;28;20288;-42
2023/04/30 01:36:08;;;;;;;;;;;;;;;6.56;99.67;102372.84;4987464;28;19933;-42
2023/04/30 01:38:42;;;;;;;;;;;;;;;6.53;97.68;102378.63;4983852;28;19930;-42
2023/04/30 01:41:10;;;;;;;;;;;;;;;6.52;98.69;102381.97;4988769;28;19918;-41
2023/04/30 01:43:45;;;;;;;;;;;;;;;6.52;98.55;102383.63;4988605;28;19921;-42
2023/04/30 01:46:10;;;;;;;;;;;;;;;6.46;97.55;102381.53;4984565;28;20615;-42
2023/04/30 01:49:02;;;;;;;;;;;;;;;6.43;99.69;102371.09;4976647;28;19917;-54
2023/04/30 01:51:40;;;;;;;;;;;;;;;6.37;99.17;102379.25;4987994;28;19993;-53
2023/04/30 01:54:10;;;;;;;;;;;;;;;6.31;99.40;102381.38;4988645;28;19925;-55
2023/04/30 01:56:38;;;;;;;;;;;;;;;6.25;99.77;102383.53;4988364;28;20359;-55
2023/04/30 01:59:04;;;;;;;;;;;;;;;6.20;100.00;102382.31;4985531;28;19937;-55
2023/04/30 02:01:30;;;;;;;;;;;;;;;6.16;100.00;102377.75;4986479;28;19922;-54
2023/04/30 02:03:55;;;;;;;;;;;;;;;6.10;100.00;102380.75;4986072;28;19922;-54
2023/04/30 02:06:21;;;;;;;;;;;;;;;6.06;100.00;102380.44;4987193;28;19918;-55
2023/04/30 02:08:47;;;;;;;;;;;;;;;6.02;99.35;102383.56;4987903;28;19922;-55
2023/04/30 02:11:12;;;;;;;;;;;;;;;6.01;99.81;102379.25;4988034;28;19922;-55
2023/04/30 02:13:37;;;;;;;;;;;;;;;6.01;99.13;102376.69;4996526;28;19928;-55
2023/04/30 02:16:03;;;;;;;;;;;;;;;6.02;98.52;102376.78;5000249;28;19970;-55
2023/04/30 02:18:28;;;;;;;;;;;;;;;6.03;100.00;102375.13;4995133;28;20422;-55
2023/04/30 02:20:53;;;;;;;;;;;;;;;6.03;100.00;102380.22;5004574;28;19921;-55
2023/04/30 02:23:19;;;;;;;;;;;;;;;6.03;99.35;102378.56;4990926;28;20326;-55
2023/04/30 02:25:44;;;;;;;;;;;;;;;6.04;100.00;102376.88;4993382;28;19978;-55
2023/04/30 02:28:09;;;;;;;;;;;;;;;6.03;99.35;102377.69;4986582;28;20008;-54
2023/04/30 02:30:34;;;;;;;;;;;;;;;6.04;100.00;102380.34;4981857;28;20015;-54
2023/04/30 02:33:01;;;;;;;;;;;;;;;6.05;100.00;102374.44;4980488;28;19929;-55
2023/04/30 02:35:26;;;;;;;;;;;;;;;6.03;100.00;102377.69;4982013;28;20292;-54
2023/04/30 02:37:52;;;;;;;;;;;;;;;6.01;100.00;102385.25;4983047;28;19926;-54
2023/04/30 02:40:17;;;;;;;;;;;;;;;5.99;100.00;102375.69;4980268;28;20025;-56
2023/04/30 02:42:42;;;;;;;;;;;;;;;5.98;100.00;102381.56;4977990;28;20380;-55
2023/04/30 02:45:07;;;;;;;;;;;;;;;5.99;100.00;102378.22;4989924;28;20304;-55
2023/04/30 02:47:33;;;;;;;;;;;;;;;5.97;100.00;102374.69;4987446;28;19989;-55
2023/04/30 02:49:58;;;;;;;;;;;;;;;5.97;100.00;102372.13;4981866;28;19926;-55
2023/04/30 02:52:24;;;;;;;;;;;;;;;5.96;99.74;102376.34;4980319;28;19922;-54
2023/04/30 02:54:49;;;;;;;;;;;;;;;5.96;100.00;102376.34;4976150;28;19915;-55
2023/04/30 02:57:15;;;;;;;;;;;;;;;5.98;100.00;102376.47;4984098;28;19926;-56
2023/04/30 02:59:44;;;;;;;;;;;;;;;5.97;100.00;102367.03;4982218;28;19937;-55
2023/04/30 03:02:09;;;;;;;;;;;;;;;5.97;100.00;102372.13;5006197;28;19961;-54
2023/04/30 03:04:35;;;;;;;;;;;;;;;5.96;100.00;102367.81;4988883;28;19964;-56
2023/04/30 03:07:00;;;;;;;;;;;;;;;5.96;100.00;102375.47;4982321;28;19922;-53
2023/04/30 03:09:25;;;;;;;;;;;;;;;5.96;100.00;102376.34;4984758;28;19925;-54
2023/04/30 03:11:50;;;;;;;;;;;;;;;5.94;100.00;102371.91;4982333;28;19961;-53
2023/04/30 03:14:15;;;;;;;;;;;;;;;5.90;100.00;102366.56;4994764;28;19917;-55
2023/04/30 03:16:41;;;;;;;;;;;;;;;5.86;100.00;102379.00;4987834;28;20650;-55
2023/04/30 03:19:06;;;;;;;;;;;;;;;5.78;100.00;102378.47;4987206;28;19983;-54
2023/04/30 03:21:31;;;;;;;;;;;;;;;5.74;100.00;102379.00;5000708;28;19917;-54
2023/04/30 03:23:56;;;;;;;;;;;;;;;5.71;100.00;102376.25;4982871;28;20369;-54
2023/04/30 03:26:22;;;;;;;;;;;;;;;5.68;100.00;102377.69;4985906;28;20332;-55
2023/04/30 03:28:47;;;;;;;;;;;;;;;5.64;100.00;102379.13;4979093;28;19910;-54
2023/04/30 03:31:12;;;;;;;;;;;;;;;5.60;100.00;102372.91;4973865;28;20253;-54
2023/04/30 03:33:37;;;;;;;;;;;;;;;5.55;100.00;102369.16;5072463;28;19930;-57
2023/04/30 03:36:03;;;;;;;;;;;;;;;5.52;100.00;102378.22;4998353;28;19918;-54
2023/04/30 03:38:28;;;;;;;;;;;;;;;5.51;100.00;102379.00;5013411;28;20405;-54
2023/04/30 03:40:53;;;;;;;;;;;;;;;5.50;100.00;102377.25;4994773;28;20000;-55
2023/04/30 03:43:18;;;;;;;;;;;;;;;5.47;100.00;102377.03;4996337;28;19964;-54
2023/04/30 03:45:44;;;;;;;;;;;;;;;5.43;100.00;102378.47;5024225;28;20340;-52
2023/04/30 03:48:09;;;;;;;;;;;;;;;5.42;100.00;102379.25;4995055;28;20375;-55
2023/04/30 03:50:35;;;;;;;;;;;;;;;5.41;100.00;102380.03;5021684;28;19920;-55
2023/04/30 03:53:00;;;;;;;;;;;;;;;5.37;100.00;102378.00;5014897;28;19929;-55
2023/04/30 03:55:25;;;;;;;;;;;;;;;5.33;100.00;102376.88;4994129;28;19944;-55
2023/04/30 03:57:51;;;;;;;;;;;;;;;5.30;100.00;102381.78;4996765;28;19920;-55
2023/04/30 04:00:18;;;;;;;;;;;;;;;5.24;100.00;102383.88;4993296;28;20572;-54
2023/04/30 04:02:43;;;;;;;;;;;;;;;5.19;100.00;102377.56;5035501;28;19918;-55
2023/04/30 04:05:09;;;;;;;;;;;;;;;5.14;100.00;102386.53;4993449;28;19986;-53
2023/04/30 04:07:34;;;;;;;;;;;;;;;5.09;100.00;102381.06;5003161;28;19928;-54
2023/04/30 04:10:00;;;;;;;;;;;;;;;5.05;100.00;102384.19;4996677;28;19957;-54
2023/04/30 04:12:25;;;;;;;;;;;;;;;5.00;100.00;102382.06;4991296;28;19918;-53
2023/04/30 04:14:51;;;;;;;;;;;;;;;4.99;100.00;102381.19;5001980;28;19914;-55
2023/04/30 04:17:16;;;;;;;;;;;;;;;5.01;100.00;102381.28;4990410;28;20412;-52
2023/04/30 04:19:41;;;;;;;;;;;;;;;5.02;100.00;102383.06;5007103;28;20004;-54
2023/04/30 04:22:06;;;;;;;;;;;;;;;5.00;100.00;102389.72;4981628;28;19932;-56
2023/04/30 04:24:32;;;;;;;;;;;;;;;5.00;100.00;102387.16;4993353;28;19958;-54
2023/04/30 04:26:58;;;;;;;;;;;;;;;4.96;100.00;102393.69;5000758;28;19951;-55
2023/04/30 04:29:23;;;;;;;;;;;;;;;4.96;100.00;102388.59;4996082;28;19965;-54
2023/04/30 04:31:49;;;;;;;;;;;;;;;4.94;100.00;102390.16;5000099;28;20387;-54
2023/04/30 04:34:15;;;;;;;;;;;;;;;4.94;100.00;102392.69;4997848;28;19967;-53
2023/04/30 04:36:41;;;;;;;;;;;;;;;4.94;100.00;102391.81;4995490;28;19921;-54
2023/04/30 04:39:06;;;;;;;;;;;;;;;4.95;100.00;102393.56;4991032;28;19924;-54
2023/04/30 04:41:32;;;;;;;;;;;;;;;4.97;100.00;102390.34;4992955;28;19981;-54
2023/04/30 04:43:58;;;;;;;;;;;;;;;5.02;100.00;102391.59;4995243;28;20030;-54
2023/04/30 04:46:24;;;;;;;;;;;;;;;5.07;100.00;102397.94;4986021;28;20323;-54
2023/04/30 04:48:49;;;;;;;;;;;;;;;5.15;100.00;102401.03;4996258;28;19926;-41
2023/04/30 04:51:14;;;;;;;;;;;;;;;5.21;100.00;102393.84;4994062;28;19922;-42
2023/04/30 04:53:40;;;;;;;;;;;;;;;5.27;100.00;102394.28;4995617;28;20016;-43
2023/04/30 04:56:06;;;;;;;;;;;;;;;5.34;100.00;102400.75;5005873;28;20262;-43
2023/04/30 04:58:31;;;;;;;;;;;;;;;5.45;100.00;102393.88;4991974;28;19925;-43
2023/04/30 05:00:56;;;;;;;;;;;;;;;5.99;100.00;102406.31;4994332;28;20004;-42
2023/04/30 05:03:22;;;;;;;;;;;;;;;6.77;100.00;102397.31;4998428;28;19921;-41
2023/04/30 05:05:47;;;;;;;;;;;;;;;7.50;100.00;102407.28;5001875;28;20139;-45
2023/04/30 05:08:12;;;;;;;;;;;;;;;8.20;100.00;102407.47;4989742;28;20707;-42
2023/04/30 05:10:37;;;;;;;;;;;;;;;8.81;99.76;102406.97;4989762;28;19965;-43
2023/04/30 05:13:03;;;;;;;;;;;;;;;9.36;97.94;102402.50;4996317;28;19928;-42
2023/04/30 05:15:28;;;;;;;;;;;;;;;9.86;93.71;102401.91;5000274;28;19930;-42
2023/04/30 05:17:53;;;;;;;;;;;;;;;10.16;92.48;102400.13;4988652;28;19922;-46
2023/04/30 05:20:18;;;;;;;;;;;;;;;10.44;91.31;102402.53;4985584;28;19968;-44
2023/04/30 05:22:44;;;;;;;;;;;;;;;10.72;89.43;102402.28;4996344;28;19921;-42
2023/04/30 05:25:09;;;;;;;;;;;;;;;11.04;88.43;102397.00;4978120;28;20065;-43
2023/04/30 05:27:35;;;;;;;;;;;;;;;11.31;87.95;102392.34;4969644;28;19964;-42
2023/04/30 05:30:00;;;;;;;;;;;;;;;11.46;87.80;102396.56;4982538;28;19929;-43
2023/04/30 05:32:26;;;;;;;;;;;;;;;11.64;87.36;102398.25;4984715;28;19922;-42
2023/04/30 05:34:51;;;;;;;;;;;;;;;11.74;87.37;102387.59;4988731;28;19917;-43
2023/04/30 05:37:18;;;;;;;;;;;;;;;11.81;85.16;102390.56;4982784;28;19925;-55
2023/04/30 05:39:44;;;;;;;;;;;;;;;11.87;84.90;102392.53;4998348;28;20402;-56
2023/04/30 05:42:09;;;;;;;;;;;;;;;11.85;85.93;102393.28;4987555;28;19922;-56
2023/04/30 05:44:34;;;;;;;;;;;;;;;11.70;84.30;102389.13;4984511;28;19925;-55
2023/04/30 05:47:00;;;;;;;;;;;;;;;11.59;84.85;102395.47;4983979;28;20299;-55
2023/04/30 05:49:26;;;;;;;;;;;;;;;11.50;85.87;102389.88;4982569;28;19965;-56
2023/04/30 05:51:51;;;;;;;;;;;;;;;11.24;86.22;102397.22;4988547;28;19928;-55
2023/04/30 05:54:16;;;;;;;;;;;;;;;11.20;86.71;102397.84;4977334;28;20005;-55
2023/04/30 05:56:42;;;;;;;;;;;;;;;11.04;86.71;102397.88;4981861;28;19922;-57
2023/04/30 05:59:07;;;;;;;;;;;;;;;10.81;86.59;102390.72;4971867;28;19937;-44
2023/04/30 06:01:32;;;;;;;;;;;;;;;10.72;86.33;102396.25;4972389;28;20024;-43
2023/04/30 06:04:00;;;;;;;;;;;;;;;10.65;86.37;102389.03;4986753;28;19926;-42
2023/04/30 06:06:25;;;;;;;;;;;;;;;10.58;86.73;102394.66;4988186;28;19953;-44
2023/04/30 06:08:51;;;;;;;;;;;;;;;10.59;86.67;102394.72;4988564;28;19980;-42
2023/04/30 06:11:16;;;;;;;;;;;;;;;10.75;87.31;102396.41;4987502;28;19902;-45
2023/04/30 06:13:41;;;;;;;;;;;;;;;10.82;86.73;102395.94;4976639;28;19922;-44
2023/04/30 06:16:07;;;;;;;;;;;;;;;10.87;86.08;102384.19;4989211;28;19929;-44
2023/04/30 06:18:32;;;;;;;;;;;;;;;10.88;85.94;102387.63;4976480;28;19987;-43
2023/04/30 06:20:57;;;;;;;;;;;;;;;10.96;85.88;102382.06;5000102;28;20355;-45
2023/04/30 06:23:23;;;;;;;;;;;;;;;11.13;85.20;102384.59;4998297;28;19929;-42
2023/04/30 06:25:48;;;;;;;;;;;;;;;11.27;85.54;102386.16;4994223;28;19926;-43
2023/04/30 06:28:13;;;;;;;;;;;;;;;11.40;84.70;102382.50;4984102;28;19932;-44
2023/04/30 06:30:40;;;;;;;;;;;;;;;11.44;83.60;102387.88;4982422;28;19922;-43
2023/04/30 06:33:05;;;;;;;;;;;;;;;11.58;84.67;102391.13;4987685;28;20061;-42
2023/04/30 06:35:30;;;;;;;;;;;;;;;11.78;84.50;102380.09;4972959;28;20648;-45
2023/04/30 06:37:56;;;;;;;;;;;;;;;11.88;82.66;102385.69;4986331;28;20464;-44
2023/04/30 06:40:21;;;;;;;;;;;;;;;11.89;83.29;102392.59;4989754;28;19945;-43
2023/04/30 06:42:46;;;;;;;;;;;;;;;11.94;82.20;102393.72;4991082;28;21313;-43
2023/04/30 06:45:14;;;;;;;;;;;;;;;11.99;80.50;102393.13;4985434;28;19937;-43
2023/04/30 06:47:41;;;;;;;;;;;;;;;12.18;82.66;102392.25;4985624;28;19933;-43
2023/04/30 06:50:06;;;;;;;;;;;;;;;12.35;81.04;102395.63;4985634;28;19918;-43
2023/04/30 06:52:32;;;;;;;;;;;;;;;12.51;80.38;102397.19;4989078;28;19926;-44
2023/04/30 06:54:57;;;;;;;;;;;;;;;12.67;79.14;102396.16;4985450;28;19922;-44
2023/04/30 06:57:23;;;;;;;;;;;;;;;12.81;79.59;102398.53;4976620;28;20018;-42
2023/04/30 06:59:48;;;;;;;;;;;;;;;12.92;78.01;102398.09;4974210;28;20020;-44
2023/04/30 07:02:13;;;;;;;;;;;;;;;12.88;78.46;102397.97;4988167;28;20103;-44
2023/04/30 07:04:39;;;;;;;;;;;;;;;12.86;78.74;102398.72;4981902;28;20027;-45
2023/04/30 07:07:04;;;;;;;;;;;;;;;12.92;78.93;102393.81;4985625;28;19926;-44
2023/04/30 07:09:29;;;;;;;;;;;;;;;12.98;76.85;102398.34;4987722;28;19953;-43
2023/04/30 07:11:56;;;;;;;;;;;;;;;12.92;76.42;102392.94;4983643;28;20675;-46
2023/04/30 07:14:21;;;;;;;;;;;;;;;12.95;76.23;102398.25;4988229;28;19922;-44
2023/04/30 07:16:48;;;;;;;;;;;;;;;12.99;76.69;102400.16;5004164;28;19922;-44
2023/04/30 07:19:14;;;;;;;;;;;;;;;12.94;76.28;102396.50;4980411;28;19950;-43
2023/04/30 07:21:39;;;;;;;;;;;;;;;12.91;76.27;102392.06;5016853;28;20341;-44
2023/04/30 07:24:04;;;;;;;;;;;;;;;12.92;76.52;102390.34;4984025;28;20432;-43
2023/04/30 07:26:30;;;;;;;;;;;;;;;12.96;75.87;102387.97;4981695;28;20021;-44
2023/04/30 07:28:55;;;;;;;;;;;;;;;13.09;75.54;102385.09;4980894;28;19928;-44
2023/04/30 07:31:20;;;;;;;;;;;;;;;13.27;74.58;102397.91;4982258;28;20013;-45
2023/04/30 07:33:46;;;;;;;;;;;;;;;13.35;75.11;102390.50;5003606;28;19926;-45
2023/04/30 07:36:11;;;;;;;;;;;;;;;13.35;75.39;102383.63;4989809;28;19984;-44
2023/04/30 07:38:36;;;;;;;;;;;;;;;13.41;75.03;102386.47;5003012;28;20024;-44
2023/04/30 07:41:02;;;;;;;;;;;;;;;13.53;74.34;102380.91;4998299;28;19925;-43
2023/04/30 07:43:28;;;;;;;;;;;;;;;13.61;74.14;102384.69;4996438;28;20308;-44
2023/04/30 07:45:53;;;;;;;;;;;;;;;13.64;74.15;102378.75;4999545;28;19947;-45
2023/04/30 07:48:19;;;;;;;;;;;;;;;13.63;74.12;102383.03;4998368;28;20328;-45
2023/04/30 07:50:46;;;;;;;;;;;;;;;13.77;73.61;102386.19;4995092;28;20378;-43
2023/04/30 07:53:11;;;;;;;;;;;;;;;13.90;73.60;102391.00;4992834;28;20004;-43
2023/04/30 07:55:36;;;;;;;;;;;;;;;14.03;73.00;102384.59;4995912;28;20059;-43
2023/04/30 07:58:02;;;;;;;;;;;;;;;13.98;73.20;102399.03;4994802;28;19974;-46
2023/04/30 08:00:28;;;;;;;;;;;;;;;14.04;72.22;102385.47;4994438;28;19925;-45
2023/04/30 08:02:53;;;;;;;;;;;;;;;14.07;71.79;102391.63;4988160;28;19930;-43
2023/04/30 08:05:19;;;;;;;;;;;;;;;14.14;72.41;102393.66;4995020;28;20024;-44
2023/04/30 08:07:44;;;;;;;;;;;;;;;14.19;71.99;102389.50;4993187;28;20079;-43
2023/04/30 08:10:09;;;;;;;;;;;;;;;14.29;70.94;102392.44;4994063;28;20320;-45
2023/04/30 08:12:35;;;;;;;;;;;;;;;14.36;70.99;102400.47;4994593;28;20403;-46
2023/04/30 08:15:03;;;;;;;;;;;;;;;14.39;71.12;102404.91;4982453;28;19921;-47
2023/04/30 08:17:28;;;;;;;;;;;;;;;14.44;70.65;102396.50;4991857;28;19918;-57
2023/04/30 08:19:53;;;;;;;;;;;;;;;14.49;71.00;102402.72;5009452;28;19939;-56
2023/04/30 08:22:18;;;;;;;;;;;;;;;14.57;70.38;102394.38;4993051;28;19973;-57
2023/04/30 08:24:44;;;;;;;;;;;;;;;14.64;70.62;102407.59;4998707;28;20010;-56
2023/04/30 08:27:09;;;;;;;;;;;;;;;14.65;69.94;102395.53;5001059;28;19956;-57
2023/04/30 08:29:34;;;;;;;;;;;;;;;14.73;69.85;102388.91;4999513;28;19927;-57
2023/04/30 08:32:01;;;;;;;;;;;;;;;14.71;69.24;102395.75;4988267;28;19925;-55
2023/04/30 08:34:27;;;;;;;;;;;;;;;14.75;69.48;102400.22;4997181;28;19943;-53
2023/04/30 08:36:52;;;;;;;;;;;;;;;14.78;69.66;102405.47;4994634;28;19930;-53
2023/04/30 08:39:17;;;;;;;;;;;;;;;14.81;69.01;102396.97;4991871;28;19926;-53
2023/04/30 08:41:45;;;;;;;;;;;;;;;14.85;69.42;102391.03;4980005;28;20365;-53
2023/04/30 08:44:12;;;;;;;;;;;;;;;14.84;69.40;102391.88;4985162;28;19918;-43
2023/04/30 08:46:38;;;;;;;;;;;;;;;14.66;69.08;102390.41;4980360;28;19972;-44
2023/04/30 08:49:03;;;;;;;;;;;;;;;14.54;70.21;102394.25;4994616;28;19922;-45
2023/04/30 08:51:30;;;;;;;;;;;;;;;14.44;70.43;102388.72;4995397;28;20012;-43
2023/04/30 08:53:56;;;;;;;;;;;;;;;14.41;70.80;102392.91;4983310;28;19918;-43
2023/04/30 08:56:21;;;;;;;;;;;;;;;14.42;70.43;102392.06;4988315;28;19929;-44
2023/04/30 08:58:47;;;;;;;;;;;;;;;14.37;70.58;102385.84;5002221;28;19936;-44
2023/04/30 09:01:12;;;;;;;;;;;;;;;14.32;70.25;102390.88;4995339;28;19922;-44
2023/04/30 09:03:38;;;;;;;;;;;;;;;14.21;69.99;102387.00;5000295;28;20015;-43
2023/04/30 09:06:03;;;;;;;;;;;;;;;14.09;71.30;102387.41;5000208;28;20475;-47
2023/04/30 09:08:42;;;;;;;;;;;;;;;14.10;70.68;102390.88;4988166;28;19925;-44
2023/04/30 09:11:27;;;;;;;;;;;;;;;14.03;70.33;102386.28;4991023;28;19928;-45
2023/04/30 09:13:53;;;;;;;;;;;;;;;13.89;71.28;102381.47;4987308;28;20329;-44
2023/04/30 09:16:20;;;;;;;;;;;;;;;13.94;71.10;102387.69;5010728;28;19921;-46
2023/04/30 09:18:46;;;;;;;;;;;;;;;14.07;70.59;102375.22;5004061;28;20288;-43
2023/04/30 09:21:11;;;;;;;;;;;;;;;14.05;70.32;102387.22;5000476;28;19922;-46
2023/04/30 09:23:52;;;;;;;;;;;;;;;14.10;70.59;102380.53;5001765;28;19918;-45
2023/04/30 09:26:20;;;;;;;;;;;;;;;14.17;70.56;102380.81;5006717;28;19918;-45
2023/04/30 09:28:56;;;;;;;;;;;;;;;14.23;70.34;102374.97;5007516;28;20388;-45
2023/04/30 09:31:21;;;;;;;;;;;;;;;14.27;70.24;102373.41;4983699;28;19929;-43
2023/04/30 09:33:47;;;;;;;;;;;;;;;14.29;70.66;102372.63;5002321;28;19931;-43
2023/04/30 09:36:12;;;;;;;;;;;;;;;14.36;69.53;102374.59;5008578;28;20288;-45
2023/04/30 09:38:38;;;;;;;;;;;;;;;14.45;69.18;102374.94;4992370;28;20383;-43
2023/04/30 09:41:03;;;;;;;;;;;;;;;14.46;69.03;102371.56;5028136;28;20026;-43
2023/04/30 09:43:29;;;;;;;;;;;;;;;14.51;68.64;102366.56;4999271;28;19926;-43
2023/04/30 09:45:57;;;;;;;;;;;;;;;14.60;67.99;102369.47;5003288;28;20344;-44
2023/04/30 09:48:22;;;;;;;;;;;;;;;14.68;68.33;102373.22;4994796;28;20023;-44
2023/04/30 09:50:48;;;;;;;;;;;;;;;14.68;66.13;102373.22;4998955;28;20079;-44
2023/04/30 09:53:16;;;;;;;;;;;;;;;14.73;67.86;102370.78;4996102;28;19928;-43
2023/04/30 09:55:43;;;;;;;;;;;;;;;14.73;65.79;102360.41;4992614;28;20407;-42
2023/04/30 09:58:09;;;;;;;;;;;;;;;14.72;67.70;102356.94;4995236;28;20004;-46
2023/04/30 10:00:34;;;;;;;;;;;;;;;14.78;67.35;102358.00;4997195;28;20393;-44
2023/04/30 10:03:05;;;;;;;;;;;;;;;14.82;66.17;102355.56;4992825;28;19929;-44
2023/04/30 10:05:31;;;;;;;;;;;;;;;14.94;67.31;102356.00;4992476;28;19949;-45
2023/04/30 10:07:56;;;;;;;;;;;;;;;15.08;67.60;102353.84;5001499;28;19917;-45
2023/04/30 10:10:23;;;;;;;;;;;;;;;15.26;66.78;102341.50;4995541;28;19925;-44
2023/04/30 10:12:59;;;;;;;;;;;;;;;15.36;66.22;102347.00;5013232;28;20409;-45
2023/04/30 10:15:25;;;;;;;;;;;;;;;15.44;64.77;102348.09;5002925;28;19964;-44
2023/04/30 10:17:56;;;;;;;;;;;;;;;15.45;66.08;102339.50;5001635;28;19925;-44
2023/04/30 10:20:23;;;;;;;;;;;;;;;15.46;64.81;102336.94;5003266;28;19926;-44
2023/04/30 10:22:48;;;;;;;;;;;;;;;15.44;63.89;102342.91;5003499;28;20364;-44
2023/04/30 10:25:15;;;;;;;;;;;;;;;15.46;65.14;102338.66;5000235;28;19932;-44
2023/04/30 10:27:40;;;;;;;;;;;;;;;15.60;65.66;102337.41;5002984;28;19925;-45
2023/04/30 10:30:07;;;;;;;;;;;;;;;15.75;64.90;102329.22;5004054;28;19941;-44
2023/04/30 10:32:38;;;;;;;;;;;;;;;15.81;64.64;102335.47;4995158;28;19925;-44
2023/04/30 10:35:14;;;;;;;;;;;;;;;15.88;63.83;102333.06;4994353;28;19968;-43
2023/04/30 10:37:45;;;;;;;;;;;;;;;15.95;63.77;102333.28;5007057;28;19926;-44
2023/04/30 10:40:10;;;;;;;;;;;;;;;16.04;63.02;102328.38;5011319;28;20287;-46
2023/04/30 10:42:35;;;;;;;;;;;;;;;16.18;62.60;102322.69;5007052;28;20650;-43
2023/04/30 10:45:04;;;;;;;;;;;;;;;16.28;62.76;102325.59;4986939;28;19935;-45
2023/04/30 10:47:29;;;;;;;;;;;;;;;16.31;63.36;102317.88;4999145;28;19926;-44
2023/04/30 10:50:07;;;;;;;;;;;;;;;16.39;61.68;102312.91;5000498;28;19922;-44
2023/04/30 10:52:32;;;;;;;;;;;;;;;16.51;61.75;102321.03;5008392;28;19921;-46
2023/04/30 10:54:57;;;;;;;;;;;;;;;16.53;60.75;102308.09;5002957;28;19939;-44
2023/04/30 10:57:23;;;;;;;;;;;;;;;16.48;60.81;102305.34;4995658;28;19930;-43
2023/04/30 10:59:49;;;;;;;;;;;;;;;16.44;61.80;102306.13;4994258;28;20451;-44
2023/04/30 11:02:16;;;;;;;;;;;;;;;16.55;60.52;102301.19;4995512;28;20012;-47
2023/04/30 11:05:00;;;;;;;;;;;;;;;16.72;60.79;102299.09;5020297;28;19930;-45
2023/04/30 11:07:27;;;;;;;;;;;;;;;16.82;59.08;102301.09;4993540;28;20308;-44
2023/04/30 11:09:55;;;;;;;;;;;;;;;17.02;58.72;102285.97;5017174;28;20291;-45
2023/04/30 11:12:27;;;;;;;;;;;;;;;17.18;57.72;102289.84;4992092;28;19979;-45
2023/04/30 11:14:52;;;;;;;;;;;;;;;17.18;57.64;102289.84;5002367;28;19989;-43
2023/04/30 11:17:22;;;;;;;;;;;;;;;17.17;58.59;102286.34;4984217;28;20376;-44
2023/04/30 11:19:51;;;;;;;;;;;;;;;17.29;57.18;102277.94;4982491;28;19921;-45
2023/04/30 11:22:16;;;;;;;;;;;;;;;17.36;58.64;102272.94;4991872;28;20450;-45
2023/04/30 11:24:59;;;;;;;;;;;;;;;17.55;57.43;102274.22;4996418;28;20042;-45
2023/04/30 11:27:26;;;;;;;;;;;;;;;17.79;57.45;102271.28;5000218;28;19932;-44
2023/04/30 11:29:51;;;;;;;;;;;;;;;17.79;56.53;102265.22;4992129;28;20291;-47
2023/04/30 11:32:21;;;;;;;;;;;;;;;17.78;55.90;102263.47;5003766;28;19922;-45
2023/04/30 11:34:47;;;;;;;;;;;;;;;17.79;54.38;102254.81;5016790;28;19924;-45
2023/04/30 11:37:17;;;;;;;;;;;;;;;17.81;55.55;102253.09;5000226;28;19994;-43
2023/04/30 11:39:42;;;;;;;;;;;;;;;17.88;54.68;102260.19;4998122;28;19918;-45
2023/04/30 11:42:07;;;;;;;;;;;;;;;17.87;53.85;102248.03;4992988;28;19926;-45
2023/04/30 11:44:33;;;;;;;;;;;;;;;18.02;53.55;102245.75;4998423;28;19925;-47
2023/04/30 11:46:59;;;;;;;;;;;;;;;18.20;53.07;102239.97;4991595;28;20448;-43
2023/04/30 11:49:25;;;;;;;;;;;;;;;18.42;51.10;102244.72;4993829;28;19928;-43
2023/04/30 11:51:51;;;;;;;;;;;;;;;18.59;51.04;102239.81;4994668;28;20059;-44
2023/04/30 11:54:17;;;;;;;;;;;;;;;18.46;51.40;102230.06;4989239;28;19941;-43
2023/04/30 11:56:49;;;;;;;;;;;;;;;18.32;51.87;102234.13;4992467;28;19921;-47
2023/04/30 12:02:44;;;;;;;;;;;;;;;18.46;50.63;102228.31;4955737;28;20036;-44
2023/04/30 12:05:17;;;;;;;;;;;;;;;18.68;49.55;102223.47;4985159;28;19955;-46
2023/04/30 12:07:49;;;;;;;;;;;;;;;18.72;49.62;102223.56;4992282;28;21144;-44
2023/04/30 12:10:15;;;;;;;;;;;;;;;18.62;49.12;102225.97;4993486;28;20428;-43
2023/04/30 12:12:41;;;;;;;;;;;;;;;18.73;49.87;102221.84;4988429;28;20021;-45
2023/04/30 12:15:14;;;;;;;;;;;;;;;18.98;49.46;102212.66;4988748;28;19973;-46
2023/04/30 12:17:39;;;;;;;;;;;;;;;19.26;49.05;102211.34;4996373;28;19930;-46
2023/04/30 12:20:05;;;;;;;;;;;;;;;19.44;47.42;102218.53;5001090;28;19920;-45
2023/04/30 12:22:31;;;;;;;;;;;;;;;19.54;47.51;102208.25;5006880;28;19926;-46
2023/04/30 12:24:58;;;;;;;;;;;;;;;19.31;48.43;102208.81;4982382;28;20400;-48
2023/04/30 12:27:23;;;;;;;;;;;;;;;19.25;49.00;102206.97;4980275;28;20693;-46
2023/04/30 12:29:49;;;;;;;;;;;;;;;19.40;46.90;102207.16;4985385;28;19929;-47
2023/04/30 12:32:18;;;;;;;;;;;;;;;19.47;48.73;102205.50;4998362;28;19990;-45
2023/04/30 12:34:43;;;;;;;;;;;;;;;19.66;47.75;102199.72;4994280;28;19921;-43
2023/04/30 12:37:09;;;;;;;;;;;;;;;19.83;45.40;102198.16;4988164;28;19925;-44